sensor_id;sensor_type;location;lat;lon;timestamp;temperature;humidity
37268;DHT22;23154;52.542;13.362;2022-08-03T00:01:29;20.90;96.00
37268;DHT22;23154;52.542;13.362;2022-08-03T00:03:55;21.00;96.20
37268;DHT22;23154;52.542;13.362;2022-08-03T00:06:21;20.90;96.30
37268;DHT22;23154;52.542;13.362;2022-08-03T00:08:47;21.00;96.10
37268;DHT22;23154;52.542;13.362;2022-08-03T00:11:12;21.00;96.10
37268;DHT22;23154;52.542;13.362;2022-08-03T00:13:38;20.90;96.10
37268;DHT22;23154;52.542;13.362;2022-08-03T00:16:04;21.00;96.60
37268;DHT22;23154;52.542;13.362;2022-08-03T00:18:29;21.00;96.30
37268;DHT22;23154;52.542;13.362;2022-08-03T00:20:56;21.00;96.40
37268;DHT22;23154;52.542;13.362;2022-08-03T00:23:22;21.00;96.30
37268;DHT22;23154;52.542;13.362;2022-08-03T00:25:48;21.00;96.50
37268;DHT22;23154;52.542;13.362;2022-08-03T00:28:13;20.90;96.30
37268;DHT22;23154;52.542;13.362;2022-08-03T00:30:39;21.00;96.40
37268;DHT22;23154;52.542;13.362;2022-08-03T00:33:04;21.00;96.40
37268;DHT22;23154;52.542;13.362;2022-08-03T00:35:30;21.00;96.20
37268;DHT22;23154;52.542;13.362;2022-08-03T00:37:57;21.00;96.70
37268;DHT22;23154;52.542;13.362;2022-08-03T00:40:23;21.00;96.90
37268;DHT22;23154;52.542;13.362;2022-08-03T00:42:56;21.00;96.90
37268;DHT22;23154;52.542;13.362;2022-08-03T00:45:27;21.00;96.70
37268;DHT22;23154;52.542;13.362;2022-08-03T00:47:54;21.10;96.70
37268;DHT22;23154;52.542;13.362;2022-08-03T00:50:21;21.00;96.80
37268;DHT22;23154;52.542;13.362;2022-08-03T00:52:48;21.00;97.00
37268;DHT22;23154;52.542;13.362;2022-08-03T00:55:16;20.90;97.20
37268;DHT22;23154;52.542;13.362;2022-08-03T00:57:42;20.90;97.70
37268;DHT22;23154;52.542;13.362;2022-08-03T01:00:10;20.70;97.50
37268;DHT22;23154;52.542;13.362;2022-08-03T01:02:38;20.70;97.80
37268;DHT22;23154;52.542;13.362;2022-08-03T01:05:05;20.70;98.00
37268;DHT22;23154;52.542;13.362;2022-08-03T01:08:03;20.70;98.00
37268;DHT22;23154;52.542;13.362;2022-08-03T01:13:28;20.50;98.60
37268;DHT22;23154;52.542;13.362;2022-08-03T01:21:11;20.40;99.90
37268;DHT22;23154;52.542;13.362;2022-08-03T01:31:38;20.40;99.90
37268;DHT22;23154;52.542;13.362;2022-08-03T01:34:09;20.50;99.90
37268;DHT22;23154;52.542;13.362;2022-08-03T01:36:38;20.50;99.90
37268;DHT22;23154;52.542;13.362;2022-08-03T01:39:07;20.60;99.90
37268;DHT22;23154;52.542;13.362;2022-08-03T01:41:38;20.60;99.90
37268;DHT22;23154;52.542;13.362;2022-08-03T01:44:07;20.60;99.90
37268;DHT22;23154;52.542;13.362;2022-08-03T01:46:34;20.60;99.90
37268;DHT22;23154;52.542;13.362;2022-08-03T01:49:02;20.60;99.90
37268;DHT22;23154;52.542;13.362;2022-08-03T01:51:31;20.60;99.90
37268;DHT22;23154;52.542;13.362;2022-08-03T01:53:58;20.50;99.90
37268;DHT22;23154;52.542;13.362;2022-08-03T01:56:25;20.50;99.90
37268;DHT22;23154;52.542;13.362;2022-08-03T01:58:53;20.60;99.90
37268;DHT22;23154;52.542;13.362;2022-08-03T02:01:21;20.50;99.80
37268;DHT22;23154;52.542;13.362;2022-08-03T02:03:48;20.60;99.90
37268;DHT22;23154;52.542;13.362;2022-08-03T02:06:14;20.60;99.90
37268;DHT22;23154;52.542;13.362;2022-08-03T02:08:42;20.60;99.70
37268;DHT22;23154;52.542;13.362;2022-08-03T02:11:09;20.70;99.30
37268;DHT22;23154;52.542;13.362;2022-08-03T02:13:36;20.70;99.30
37268;DHT22;23154;52.542;13.362;2022-08-03T02:16:03;20.70;99.30
37268;DHT22;23154;52.542;13.362;2022-08-03T02:18:30;20.70;99.00
37268;DHT22;23154;52.542;13.362;2022-08-03T02:21:03;20.70;99.00
37268;DHT22;23154;52.542;13.362;2022-08-03T02:23:30;20.70;98.90
37268;DHT22;23154;52.542;13.362;2022-08-03T02:26:02;20.70;98.90
37268;DHT22;23154;52.542;13.362;2022-08-03T02:28:33;20.70;98.90
37268;DHT22;23154;52.542;13.362;2022-08-03T02:31:04;20.70;99.00
37268;DHT22;23154;52.542;13.362;2022-08-03T02:33:35;20.70;98.80
37268;DHT22;23154;52.542;13.362;2022-08-03T02:36:04;20.80;98.80
37268;DHT22;23154;52.542;13.362;2022-08-03T02:38:32;20.80;98.70
37268;DHT22;23154;52.542;13.362;2022-08-03T02:41:00;20.80;98.70
37268;DHT22;23154;52.542;13.362;2022-08-03T02:43:29;20.80;98.60
37268;DHT22;23154;52.542;13.362;2022-08-03T02:45:54;20.80;98.50
37268;DHT22;23154;52.542;13.362;2022-08-03T02:48:27;20.70;98.50
37268;DHT22;23154;52.542;13.362;2022-08-03T02:50:55;20.80;98.30
37268;DHT22;23154;52.542;13.362;2022-08-03T02:53:22;20.80;98.10
37268;DHT22;23154;52.542;13.362;2022-08-03T02:55:49;20.80;98.10
37268;DHT22;23154;52.542;13.362;2022-08-03T02:58:17;20.80;98.00
37268;DHT22;23154;52.542;13.362;2022-08-03T03:00:44;20.80;98.00
37268;DHT22;23154;52.542;13.362;2022-08-03T03:03:10;20.90;97.80
37268;DHT22;23154;52.542;13.362;2022-08-03T03:05:36;20.90;97.60
37268;DHT22;23154;52.542;13.362;2022-08-03T03:08:03;20.90;97.50
37268;DHT22;23154;52.542;13.362;2022-08-03T03:10:29;20.80;97.80
37268;DHT22;23154;52.542;13.362;2022-08-03T03:12:56;20.80;98.00
37268;DHT22;23154;52.542;13.362;2022-08-03T03:15:24;20.70;98.20
37268;DHT22;23154;52.542;13.362;2022-08-03T03:17:51;20.70;98.10
37268;DHT22;23154;52.542;13.362;2022-08-03T03:20:18;20.60;98.40
37268;DHT22;23154;52.542;13.362;2022-08-03T03:22:47;20.60;98.70
37268;DHT22;23154;52.542;13.362;2022-08-03T03:25:14;20.50;98.70
37268;DHT22;23154;52.542;13.362;2022-08-03T03:27:40;20.40;99.20
37268;DHT22;23154;52.542;13.362;2022-08-03T03:30:07;20.40;99.40
37268;DHT22;23154;52.542;13.362;2022-08-03T03:32:33;20.20;99.60
37268;DHT22;23154;52.542;13.362;2022-08-03T03:35:01;20.20;99.90
37268;DHT22;23154;52.542;13.362;2022-08-03T03:37:27;20.10;99.90
37268;DHT22;23154;52.542;13.362;2022-08-03T03:39:55;20.10;99.90
37268;DHT22;23154;52.542;13.362;2022-08-03T03:42:21;20.00;99.90
37268;DHT22;23154;52.542;13.362;2022-08-03T03:44:47;20.00;99.90
37268;DHT22;23154;52.542;13.362;2022-08-03T03:47:13;19.90;99.90
37268;DHT22;23154;52.542;13.362;2022-08-03T03:49:39;19.90;99.90
37268;DHT22;23154;52.542;13.362;2022-08-03T03:52:05;20.00;99.90
37268;DHT22;23154;52.542;13.362;2022-08-03T03:54:41;20.00;99.90
37268;DHT22;23154;52.542;13.362;2022-08-03T03:57:08;20.00;99.90
37268;DHT22;23154;52.542;13.362;2022-08-03T03:59:37;20.00;99.90
37268;DHT22;23154;52.542;13.362;2022-08-03T04:02:04;20.00;99.90
37268;DHT22;23154;52.542;13.362;2022-08-03T04:04:31;20.10;99.90
37268;DHT22;23154;52.542;13.362;2022-08-03T04:07:17;20.20;99.90
37268;DHT22;23154;52.542;13.362;2022-08-03T04:10:02;20.20;99.90
37268;DHT22;23154;52.542;13.362;2022-08-03T04:12:50;20.30;99.90
37268;DHT22;23154;52.542;13.362;2022-08-03T04:15:20;20.50;99.90
37268;DHT22;23154;52.542;13.362;2022-08-03T04:17:47;20.70;99.90
37268;DHT22;23154;52.542;13.362;2022-08-03T04:20:16;20.70;99.70
37268;DHT22;23154;52.542;13.362;2022-08-03T04:22:45;20.80;99.60
37268;DHT22;23154;52.542;13.362;2022-08-03T04:25:13;20.80;99.40
37268;DHT22;23154;52.542;13.362;2022-08-03T04:27:43;20.80;99.10
37268;DHT22;23154;52.542;13.362;2022-08-03T04:30:09;20.80;99.00
37268;DHT22;23154;52.542;13.362;2022-08-03T04:32:36;20.80;99.10
37268;DHT22;23154;52.542;13.362;2022-08-03T04:35:03;20.70;99.20
37268;DHT22;23154;52.542;13.362;2022-08-03T04:37:46;20.70;99.50
37268;DHT22;23154;52.542;13.362;2022-08-03T04:40:18;20.70;99.10
37268;DHT22;23154;52.542;13.362;2022-08-03T04:42:45;20.70;99.70
37268;DHT22;23154;52.542;13.362;2022-08-03T04:45:12;20.70;99.60
37268;DHT22;23154;52.542;13.362;2022-08-03T04:47:39;20.70;99.50
37268;DHT22;23154;52.542;13.362;2022-08-03T04:50:06;20.80;99.30
37268;DHT22;23154;52.542;13.362;2022-08-03T04:52:33;20.80;99.30
37268;DHT22;23154;52.542;13.362;2022-08-03T04:54:59;20.90;99.00
37268;DHT22;23154;52.542;13.362;2022-08-03T04:57:25;20.90;98.80
37268;DHT22;23154;52.542;13.362;2022-08-03T04:59:52;21.00;98.50
37268;DHT22;23154;52.542;13.362;2022-08-03T05:02:21;21.00;98.60
37268;DHT22;23154;52.542;13.362;2022-08-03T05:04:47;21.10;98.20
37268;DHT22;23154;52.542;13.362;2022-08-03T05:07:13;21.20;98.10
37268;DHT22;23154;52.542;13.362;2022-08-03T05:09:39;21.20;97.40
37268;DHT22;23154;52.542;13.362;2022-08-03T05:12:05;21.30;97.30
37268;DHT22;23154;52.542;13.362;2022-08-03T05:14:34;21.40;97.10
37268;DHT22;23154;52.542;13.362;2022-08-03T05:17:06;21.50;97.60
37268;DHT22;23154;52.542;13.362;2022-08-03T05:19:32;21.50;96.90
37268;DHT22;23154;52.542;13.362;2022-08-03T05:21:58;21.60;96.70
37268;DHT22;23154;52.542;13.362;2022-08-03T05:24:28;21.70;96.20
37268;DHT22;23154;52.542;13.362;2022-08-03T05:26:54;21.70;96.00
37268;DHT22;23154;52.542;13.362;2022-08-03T05:29:19;21.80;95.60
37268;DHT22;23154;52.542;13.362;2022-08-03T05:31:45;21.90;95.20
37268;DHT22;23154;52.542;13.362;2022-08-03T05:34:11;22.00;94.80
37268;DHT22;23154;52.542;13.362;2022-08-03T05:36:36;22.00;94.60
37268;DHT22;23154;52.542;13.362;2022-08-03T05:39:02;22.10;94.50
37268;DHT22;23154;52.542;13.362;2022-08-03T05:41:28;22.10;94.00
37268;DHT22;23154;52.542;13.362;2022-08-03T05:43:54;22.20;93.90
37268;DHT22;23154;52.542;13.362;2022-08-03T05:46:21;22.30;93.80
37268;DHT22;23154;52.542;13.362;2022-08-03T05:48:47;22.40;93.30
37268;DHT22;23154;52.542;13.362;2022-08-03T05:51:13;22.50;93.10
37268;DHT22;23154;52.542;13.362;2022-08-03T05:53:39;22.50;92.80
37268;DHT22;23154;52.542;13.362;2022-08-03T05:56:06;22.60;92.80
37268;DHT22;23154;52.542;13.362;2022-08-03T05:58:31;22.70;92.70
37268;DHT22;23154;52.542;13.362;2022-08-03T06:01:03;22.80;92.40
37268;DHT22;23154;52.542;13.362;2022-08-03T06:03:28;22.90;92.20
37268;DHT22;23154;52.542;13.362;2022-08-03T06:05:55;23.00;92.00
37268;DHT22;23154;52.542;13.362;2022-08-03T06:08:22;23.10;91.70
37268;DHT22;23154;52.542;13.362;2022-08-03T06:11:18;23.20;91.50
37268;DHT22;23154;52.542;13.362;2022-08-03T06:13:46;23.30;91.30
37268;DHT22;23154;52.542;13.362;2022-08-03T06:16:11;23.40;91.10
37268;DHT22;23154;52.542;13.362;2022-08-03T06:18:37;23.60;91.00
37268;DHT22;23154;52.542;13.362;2022-08-03T06:21:03;23.70;90.80
37268;DHT22;23154;52.542;13.362;2022-08-03T06:23:29;23.70;90.70
37268;DHT22;23154;52.542;13.362;2022-08-03T06:25:54;23.80;90.50
37268;DHT22;23154;52.542;13.362;2022-08-03T06:28:20;24.00;90.30
37268;DHT22;23154;52.542;13.362;2022-08-03T06:30:46;24.00;90.20
37268;DHT22;23154;52.542;13.362;2022-08-03T06:33:11;24.00;90.10
37268;DHT22;23154;52.542;13.362;2022-08-03T06:35:37;24.20;90.00
37268;DHT22;23154;52.542;13.362;2022-08-03T06:38:03;24.30;89.50
37268;DHT22;23154;52.542;13.362;2022-08-03T06:40:28;24.30;89.20
37268;DHT22;23154;52.542;13.362;2022-08-03T06:43:00;24.40;87.90
37268;DHT22;23154;52.542;13.362;2022-08-03T06:45:26;24.50;87.10
37268;DHT22;23154;52.542;13.362;2022-08-03T06:48:04;24.50;86.70
37268;DHT22;23154;52.542;13.362;2022-08-03T06:50:30;24.60;86.30
37268;DHT22;23154;52.542;13.362;2022-08-03T06:52:57;24.70;86.10
37268;DHT22;23154;52.542;13.362;2022-08-03T06:55:23;24.80;84.30
37268;DHT22;23154;52.542;13.362;2022-08-03T06:57:48;24.90;84.60
37268;DHT22;23154;52.542;13.362;2022-08-03T07:00:14;24.90;84.20
37268;DHT22;23154;52.542;13.362;2022-08-03T07:02:40;25.00;84.40
37268;DHT22;23154;52.542;13.362;2022-08-03T07:05:07;25.10;84.00
37268;DHT22;23154;52.542;13.362;2022-08-03T07:07:32;25.20;83.70
37268;DHT22;23154;52.542;13.362;2022-08-03T07:09:58;25.30;83.50
37268;DHT22;23154;52.542;13.362;2022-08-03T07:12:25;25.40;83.00
37268;DHT22;23154;52.542;13.362;2022-08-03T07:14:52;25.50;83.30
37268;DHT22;23154;52.542;13.362;2022-08-03T07:17:18;25.60;82.70
37268;DHT22;23154;52.542;13.362;2022-08-03T07:19:43;25.70;82.60
37268;DHT22;23154;52.542;13.362;2022-08-03T07:22:09;25.80;82.80
37268;DHT22;23154;52.542;13.362;2022-08-03T07:24:36;25.80;81.90
37268;DHT22;23154;52.542;13.362;2022-08-03T07:27:02;26.00;82.30
37268;DHT22;23154;52.542;13.362;2022-08-03T07:29:28;26.00;81.40
37268;DHT22;23154;52.542;13.362;2022-08-03T07:31:54;26.10;81.40
37268;DHT22;23154;52.542;13.362;2022-08-03T07:34:20;26.10;80.30
37268;DHT22;23154;52.542;13.362;2022-08-03T07:36:45;26.20;80.20
37268;DHT22;23154;52.542;13.362;2022-08-03T07:39:11;26.30;79.80
37268;DHT22;23154;52.542;13.362;2022-08-03T07:41:37;26.40;80.30
37268;DHT22;23154;52.542;13.362;2022-08-03T07:44:02;26.40;79.60
37268;DHT22;23154;52.542;13.362;2022-08-03T07:46:28;26.50;78.80
37268;DHT22;23154;52.542;13.362;2022-08-03T07:48:55;26.60;79.30
37268;DHT22;23154;52.542;13.362;2022-08-03T07:51:21;26.60;78.40
37268;DHT22;23154;52.542;13.362;2022-08-03T07:53:46;26.70;78.50
37268;DHT22;23154;52.542;13.362;2022-08-03T07:56:12;26.80;77.60
37268;DHT22;23154;52.542;13.362;2022-08-03T07:58:38;26.90;77.50
37268;DHT22;23154;52.542;13.362;2022-08-03T08:01:03;27.00;76.80
37268;DHT22;23154;52.542;13.362;2022-08-03T08:03:29;27.10;76.70
37268;DHT22;23154;52.542;13.362;2022-08-03T08:05:56;27.10;76.20
37268;DHT22;23154;52.542;13.362;2022-08-03T08:08:22;27.20;76.00
37268;DHT22;23154;52.542;13.362;2022-08-03T08:10:47;27.30;76.40
37268;DHT22;23154;52.542;13.362;2022-08-03T08:13:13;27.40;76.00
37268;DHT22;23154;52.542;13.362;2022-08-03T08:15:39;27.60;76.20
37268;DHT22;23154;52.542;13.362;2022-08-03T08:18:04;27.70;75.60
37268;DHT22;23154;52.542;13.362;2022-08-03T08:20:32;27.70;74.20
37268;DHT22;23154;52.542;13.362;2022-08-03T08:23:00;27.70;73.40
37268;DHT22;23154;52.542;13.362;2022-08-03T08:25:27;27.90;73.10
37268;DHT22;23154;52.542;13.362;2022-08-03T08:27:53;27.80;72.10
37268;DHT22;23154;52.542;13.362;2022-08-03T08:30:20;27.90;72.90
37268;DHT22;23154;52.542;13.362;2022-08-03T08:32:47;28.00;72.10
37268;DHT22;23154;52.542;13.362;2022-08-03T08:35:17;28.10;71.40
37268;DHT22;23154;52.542;13.362;2022-08-03T08:37:45;28.10;70.80
37268;DHT22;23154;52.542;13.362;2022-08-03T08:40:11;28.10;69.20
37268;DHT22;23154;52.542;13.362;2022-08-03T08:42:38;28.10;70.00
37268;DHT22;23154;52.542;13.362;2022-08-03T08:45:05;28.30;69.00
37268;DHT22;23154;52.542;13.362;2022-08-03T08:47:35;28.30;69.80
37268;DHT22;23154;52.542;13.362;2022-08-03T08:50:02;28.30;68.20
37268;DHT22;23154;52.542;13.362;2022-08-03T08:52:28;28.40;70.60
37268;DHT22;23154;52.542;13.362;2022-08-03T08:54:59;28.50;67.80
37268;DHT22;23154;52.542;13.362;2022-08-03T08:57:35;28.70;68.70
37268;DHT22;23154;52.542;13.362;2022-08-03T09:00:09;28.60;66.30
37268;DHT22;23154;52.542;13.362;2022-08-03T09:02:43;28.60;65.10
37268;DHT22;23154;52.542;13.362;2022-08-03T09:05:18;28.60;66.50
37268;DHT22;23154;52.542;13.362;2022-08-03T09:07:46;28.70;66.10
37268;DHT22;23154;52.542;13.362;2022-08-03T09:10:16;28.60;65.10
37268;DHT22;23154;52.542;13.362;2022-08-03T09:12:48;28.60;65.20
37268;DHT22;23154;52.542;13.362;2022-08-03T09:15:28;28.60;64.90
37268;DHT22;23154;52.542;13.362;2022-08-03T09:17:57;28.80;66.50
37268;DHT22;23154;52.542;13.362;2022-08-03T09:20:24;28.80;66.20
37268;DHT22;23154;52.542;13.362;2022-08-03T09:27:54;29.10;66.10
37268;DHT22;23154;52.542;13.362;2022-08-03T09:30:20;29.10;65.50
37268;DHT22;23154;52.542;13.362;2022-08-03T09:32:46;29.10;65.00
37268;DHT22;23154;52.542;13.362;2022-08-03T09:35:12;29.10;65.00
37268;DHT22;23154;52.542;13.362;2022-08-03T09:37:38;29.10;65.10
37268;DHT22;23154;52.542;13.362;2022-08-03T09:40:05;29.00;64.50
37268;DHT22;23154;52.542;13.362;2022-08-03T09:42:31;29.20;64.90
37268;DHT22;23154;52.542;13.362;2022-08-03T09:45:03;29.30;65.10
37268;DHT22;23154;52.542;13.362;2022-08-03T09:47:33;29.30;65.90
37268;DHT22;23154;52.542;13.362;2022-08-03T09:50:07;29.20;65.10
37268;DHT22;23154;52.542;13.362;2022-08-03T09:52:34;29.40;64.70
37268;DHT22;23154;52.542;13.362;2022-08-03T09:55:11;29.40;64.10
37268;DHT22;23154;52.542;13.362;2022-08-03T09:57:37;29.50;64.80
37268;DHT22;23154;52.542;13.362;2022-08-03T10:00:13;29.60;64.30
37268;DHT22;23154;52.542;13.362;2022-08-03T10:02:41;29.70;63.80
37268;DHT22;23154;52.542;13.362;2022-08-03T10:05:09;29.80;64.10
37268;DHT22;23154;52.542;13.362;2022-08-03T10:07:44;29.90;63.30
37268;DHT22;23154;52.542;13.362;2022-08-03T10:10:11;30.00;65.00
37268;DHT22;23154;52.542;13.362;2022-08-03T10:12:37;30.00;64.00
37268;DHT22;23154;52.542;13.362;2022-08-03T10:15:05;29.90;62.60
37268;DHT22;23154;52.542;13.362;2022-08-03T10:17:33;30.00;62.60
37268;DHT22;23154;52.542;13.362;2022-08-03T10:19:59;30.00;62.20
37268;DHT22;23154;52.542;13.362;2022-08-03T10:22:32;30.10;63.00
37268;DHT22;23154;52.542;13.362;2022-08-03T10:25:03;30.20;62.20
37268;DHT22;23154;52.542;13.362;2022-08-03T10:27:36;30.30;61.80
37268;DHT22;23154;52.542;13.362;2022-08-03T10:30:08;30.50;61.50
37268;DHT22;23154;52.542;13.362;2022-08-03T10:32:42;30.70;60.90
37268;DHT22;23154;52.542;13.362;2022-08-03T10:35:14;30.40;60.20
37268;DHT22;23154;52.542;13.362;2022-08-03T10:37:42;30.40;61.80
37268;DHT22;23154;52.542;13.362;2022-08-03T10:40:12;30.30;60.60
37268;DHT22;23154;52.542;13.362;2022-08-03T10:42:41;30.40;61.30
37268;DHT22;23154;52.542;13.362;2022-08-03T10:45:14;30.40;61.20
37268;DHT22;23154;52.542;13.362;2022-08-03T10:47:42;30.40;60.80
37268;DHT22;23154;52.542;13.362;2022-08-03T10:50:08;30.40;60.40
37268;DHT22;23154;52.542;13.362;2022-08-03T10:52:35;30.40;60.80
37268;DHT22;23154;52.542;13.362;2022-08-03T10:55:42;30.40;60.40
37268;DHT22;23154;52.542;13.362;2022-08-03T11:01:05;30.60;60.50
37268;DHT22;23154;52.542;13.362;2022-08-03T11:03:31;30.70;60.50
37268;DHT22;23154;52.542;13.362;2022-08-03T11:06:18;30.80;60.20
37268;DHT22;23154;52.542;13.362;2022-08-03T11:08:46;30.80;60.00
37268;DHT22;23154;52.542;13.362;2022-08-03T11:16:34;31.30;59.40
37268;DHT22;23154;52.542;13.362;2022-08-03T11:19:06;31.50;58.70
37268;DHT22;23154;52.542;13.362;2022-08-03T11:35:09;31.40;58.50
37268;DHT22;23154;52.542;13.362;2022-08-03T11:40:50;31.40;58.70
37268;DHT22;23154;52.542;13.362;2022-08-03T11:46:12;31.70;58.40
37268;DHT22;23154;52.542;13.362;2022-08-03T11:48:49;31.80;58.60
37268;DHT22;23154;52.542;13.362;2022-08-03T11:51:28;31.80;57.80
37268;DHT22;23154;52.542;13.362;2022-08-03T11:54:04;31.90;57.20
37268;DHT22;23154;52.542;13.362;2022-08-03T11:56:45;32.00;57.50
37268;DHT22;23154;52.542;13.362;2022-08-03T11:59:16;31.80;57.90
37268;DHT22;23154;52.542;13.362;2022-08-03T12:01:45;31.90;57.90
37268;DHT22;23154;52.542;13.362;2022-08-03T12:04:11;32.00;57.50
37268;DHT22;23154;52.542;13.362;2022-08-03T12:06:36;32.00;57.80
37268;DHT22;23154;52.542;13.362;2022-08-03T12:09:21;32.10;57.10
37268;DHT22;23154;52.542;13.362;2022-08-03T12:11:50;32.10;56.80
37268;DHT22;23154;52.542;13.362;2022-08-03T12:14:17;31.90;57.40
37268;DHT22;23154;52.542;13.362;2022-08-03T12:16:46;31.90;57.50
37268;DHT22;23154;52.542;13.362;2022-08-03T12:19:14;31.80;58.00
37268;DHT22;23154;52.542;13.362;2022-08-03T12:21:47;32.00;58.10
37268;DHT22;23154;52.542;13.362;2022-08-03T12:24:13;32.00;57.90
37268;DHT22;23154;52.542;13.362;2022-08-03T12:26:47;32.20;59.00
37268;DHT22;23154;52.542;13.362;2022-08-03T12:29:20;32.30;58.20
37268;DHT22;23154;52.542;13.362;2022-08-03T12:31:47;32.30;57.00
37268;DHT22;23154;52.542;13.362;2022-08-03T12:34:13;32.30;58.10
37268;DHT22;23154;52.542;13.362;2022-08-03T12:36:53;32.20;57.30
37268;DHT22;23154;52.542;13.362;2022-08-03T12:39:25;32.30;57.70
37268;DHT22;23154;52.542;13.362;2022-08-03T12:41:53;32.60;57.70
37268;DHT22;23154;52.542;13.362;2022-08-03T12:44:29;32.70;57.10
37268;DHT22;23154;52.542;13.362;2022-08-03T12:46:57;32.40;56.80
37268;DHT22;23154;52.542;13.362;2022-08-03T12:49:23;32.70;56.50
37268;DHT22;23154;52.542;13.362;2022-08-03T12:54:22;32.80;57.20
37268;DHT22;23154;52.542;13.362;2022-08-03T12:57:05;32.90;56.70
37268;DHT22;23154;52.542;13.362;2022-08-03T13:01:57;32.70;56.70
37268;DHT22;23154;52.542;13.362;2022-08-03T13:04:32;32.80;57.30
37268;DHT22;23154;52.542;13.362;2022-08-03T13:07:06;32.90;56.40
37268;DHT22;23154;52.542;13.362;2022-08-03T13:09:50;33.00;56.60
37268;DHT22;23154;52.542;13.362;2022-08-03T13:12:25;32.80;56.10
37268;DHT22;23154;52.542;13.362;2022-08-03T13:14:59;33.00;56.50
37268;DHT22;23154;52.542;13.362;2022-08-03T13:17:26;32.90;56.00
37268;DHT22;23154;52.542;13.362;2022-08-03T13:19:52;32.70;55.70
37268;DHT22;23154;52.542;13.362;2022-08-03T13:22:20;32.80;56.50
37268;DHT22;23154;52.542;13.362;2022-08-03T13:24:50;32.80;56.00
37268;DHT22;23154;52.542;13.362;2022-08-03T13:27:17;32.90;56.20
37268;DHT22;23154;52.542;13.362;2022-08-03T13:29:44;33.00;56.00
37268;DHT22;23154;52.542;13.362;2022-08-03T13:32:10;33.00;56.20
37268;DHT22;23154;52.542;13.362;2022-08-03T13:34:36;33.10;56.10
37268;DHT22;23154;52.542;13.362;2022-08-03T13:37:03;33.00;56.10
37268;DHT22;23154;52.542;13.362;2022-08-03T13:39:29;32.70;55.90
37268;DHT22;23154;52.542;13.362;2022-08-03T13:41:54;32.90;56.80
37268;DHT22;23154;52.542;13.362;2022-08-03T13:44:20;32.90;56.40
37268;DHT22;23154;52.542;13.362;2022-08-03T13:46:46;33.10;56.00
37268;DHT22;23154;52.542;13.362;2022-08-03T13:49:12;33.10;55.50
37268;DHT22;23154;52.542;13.362;2022-08-03T13:51:39;33.10;56.20
37268;DHT22;23154;52.542;13.362;2022-08-03T13:54:06;33.40;56.70
37268;DHT22;23154;52.542;13.362;2022-08-03T13:56:32;33.40;56.30
37268;DHT22;23154;52.542;13.362;2022-08-03T13:58:58;33.60;56.30
37268;DHT22;23154;52.542;13.362;2022-08-03T14:01:25;33.70;55.20
37268;DHT22;23154;52.542;13.362;2022-08-03T14:03:51;33.70;55.00
37268;DHT22;23154;52.542;13.362;2022-08-03T14:06:24;33.70;55.40
37268;DHT22;23154;52.542;13.362;2022-08-03T14:08:54;33.80;54.90
37268;DHT22;23154;52.542;13.362;2022-08-03T14:11:22;34.70;53.50
37268;DHT22;23154;52.542;13.362;2022-08-03T14:13:49;35.10;53.40
37268;DHT22;23154;52.542;13.362;2022-08-03T14:16:16;35.10;52.60
37268;DHT22;23154;52.542;13.362;2022-08-03T14:18:41;35.50;52.20
37268;DHT22;23154;52.542;13.362;2022-08-03T14:21:07;35.90;51.80
37268;DHT22;23154;52.542;13.362;2022-08-03T14:23:34;35.30;52.10
37268;DHT22;23154;52.542;13.362;2022-08-03T14:26:00;34.80;52.80
37268;DHT22;23154;52.542;13.362;2022-08-03T14:28:26;34.70;52.80
37268;DHT22;23154;52.542;13.362;2022-08-03T14:30:53;35.00;52.80
37268;DHT22;23154;52.542;13.362;2022-08-03T14:33:21;35.20;52.50
37268;DHT22;23154;52.542;13.362;2022-08-03T14:35:47;35.20;51.90
37268;DHT22;23154;52.542;13.362;2022-08-03T14:38:15;35.10;52.00
37268;DHT22;23154;52.542;13.362;2022-08-03T14:40:42;35.20;51.90
37268;DHT22;23154;52.542;13.362;2022-08-03T14:43:08;35.30;51.50
37268;DHT22;23154;52.542;13.362;2022-08-03T14:45:34;35.80;51.20
37268;DHT22;23154;52.542;13.362;2022-08-03T14:47:59;35.50;51.30
37268;DHT22;23154;52.542;13.362;2022-08-03T14:50:26;36.70;49.90
37268;DHT22;23154;52.542;13.362;2022-08-03T14:52:56;37.80;48.60
37268;DHT22;23154;52.542;13.362;2022-08-03T14:55:22;36.90;48.70
37268;DHT22;23154;52.542;13.362;2022-08-03T14:57:48;36.60;49.50
37268;DHT22;23154;52.542;13.362;2022-08-03T15:00:14;36.70;49.50
37268;DHT22;23154;52.542;13.362;2022-08-03T15:02:40;36.60;49.30
37268;DHT22;23154;52.542;13.362;2022-08-03T15:05:06;36.70;49.50
37268;DHT22;23154;52.542;13.362;2022-08-03T15:07:32;36.60;49.80
37268;DHT22;23154;52.542;13.362;2022-08-03T15:09:58;36.80;49.10
37268;DHT22;23154;52.542;13.362;2022-08-03T15:12:24;37.00;49.20
37268;DHT22;23154;52.542;13.362;2022-08-03T15:14:50;36.90;48.70
37268;DHT22;23154;52.542;13.362;2022-08-03T15:17:15;37.70;48.50
37268;DHT22;23154;52.542;13.362;2022-08-03T15:19:41;37.90;47.40
37268;DHT22;23154;52.542;13.362;2022-08-03T15:22:07;37.70;47.90
37268;DHT22;23154;52.542;13.362;2022-08-03T15:24:33;37.90;48.00
37268;DHT22;23154;52.542;13.362;2022-08-03T15:26:59;37.80;47.40
37268;DHT22;23154;52.542;13.362;2022-08-03T15:29:25;39.50;46.20
37268;DHT22;23154;52.542;13.362;2022-08-03T15:31:51;39.70;45.50
37268;DHT22;23154;52.542;13.362;2022-08-03T15:34:17;40.10;44.70
37268;DHT22;23154;52.542;13.362;2022-08-03T15:36:44;40.40;44.20
37268;DHT22;23154;52.542;13.362;2022-08-03T15:39:10;39.70;44.90
37268;DHT22;23154;52.542;13.362;2022-08-03T15:41:40;38.80;45.00
37268;DHT22;23154;52.542;13.362;2022-08-03T15:44:06;38.00;46.10
37268;DHT22;23154;52.542;13.362;2022-08-03T15:46:31;37.80;47.10
37268;DHT22;23154;52.542;13.362;2022-08-03T15:48:57;38.00;47.00
37268;DHT22;23154;52.542;13.362;2022-08-03T15:51:23;37.70;46.70
37268;DHT22;23154;52.542;13.362;2022-08-03T15:53:49;37.80;49.90
37268;DHT22;23154;52.542;13.362;2022-08-03T15:56:15;37.80;48.60
37268;DHT22;23154;52.542;13.362;2022-08-03T15:58:41;37.70;47.60
37268;DHT22;23154;52.542;13.362;2022-08-03T16:01:07;37.70;47.20
37268;DHT22;23154;52.542;13.362;2022-08-03T16:03:33;37.10;47.90
37268;DHT22;23154;52.542;13.362;2022-08-03T16:06:01;36.90;48.40
37268;DHT22;23154;52.542;13.362;2022-08-03T16:08:27;36.10;48.80
37268;DHT22;23154;52.542;13.362;2022-08-03T16:10:54;35.90;49.90
37268;DHT22;23154;52.542;13.362;2022-08-03T16:13:20;35.70;50.60
37268;DHT22;23154;52.542;13.362;2022-08-03T16:15:47;35.90;50.10